Shana Des Slops — FFZR — position and weather

sailwx.info

Track history (hours):
 
Tides and Currents Weather Stations Pressure Air Temp Water Temp Dewpoint Dewpoint Depression Visibility Wind Speed Wind Dir Waves Ship Positions

Shana Des Slops

Last reported at 2015-Jul-30 15:32 UTC. Time now 2015-Jul-30 16:12 UTC.
Position N 43°24' E 004°60'.

Length 47 m; draft 3.2 m.

Type: Tanker. MMSI: 228003800.

Date/timePositionNaut miles runAvg speedWind from/ knotsBaromVisibWave heightAir tempDewpointWater temp
2015-Jul-30 15:32N 43°24' E 004°60'0 0.0
2015-Jul-30 14:29N 43°24' E 004°60'0 0.0
2015-Jul-30 13:32N 43°24' E 004°60'0 0.0
2015-Jul-30 12:32N 43°24' E 004°60'0 0.0
2015-Jul-30 11:32N 43°24' E 004°60'0 0.0
2015-Jul-30 10:32N 43°24' E 004°60'0 0.0
2015-Jul-30 09:32N 43°24' E 004°60'0 0.0
2015-Jul-30 08:32N 43°24' E 004°60'0 0.0
2015-Jul-30 07:32N 43°24' E 004°60'0 0.0
2015-Jul-30 06:32N 43°24' E 004°60'0 0.0
2015-Jul-30 05:32N 43°24' E 004°60'0 0.0
2015-Jul-30 04:32N 43°24' E 004°60'0 0.0
2015-Jul-30 03:32N 43°24' E 004°60'0 0.0
2015-Jul-30 02:32N 43°24' E 004°60'0 0.0
2015-Jul-30 01:32N 43°24' E 004°60'0 0.0
2015-Jul-30 00:31N 43°24' E 004°60'0 0.0
2015-Jul-29 23:31N 43°24' E 004°60'0 0.0
2015-Jul-29 22:31N 43°24' E 004°60'0 0.0
2015-Jul-29 21:31N 43°24' E 004°60'0 0.0
2015-Jul-29 20:31N 43°24' E 004°60'0 0.0
2015-Jul-29 19:31N 43°24' E 004°60'0 0.0
2015-Jul-29 18:31N 43°24' E 004°60'1 1.3
2015-Jul-29 17:32N 43°24' E 004°58'0 0.0
2015-Jul-29 16:32N 43°24' E 004°58'0 0.0
2015-Jul-29 15:33N 43°24' E 004°58'0 0.1
2015-Jul-29 14:33N 43°24' E 004°58'0 0.0
2015-Jul-29 13:33N 43°24' E 004°58'0 0.0
2015-Jul-29 12:33N 43°24' E 004°58'1 0.8
2015-Jul-29 11:30N 43°24' E 004°59'0 0.0
2015-Jul-29 10:33N 43°24' E 004°59'0 0.0
2015-Jul-29 09:33N 43°24' E 004°59'0 0.0
2015-Jul-29 08:33N 43°24' E 004°59'0 0.0
2015-Jul-29 07:33N 43°24' E 004°59'0 0.0
2015-Jul-29 06:33N 43°24' E 004°59'0 0.0
2015-Jul-29 05:33N 43°24' E 004°59'1 0.5
2015-Jul-29 04:32N 43°24' E 004°60'0 0.0
2015-Jul-29 03:32N 43°24' E 004°60'0 0.0
2015-Jul-29 02:32N 43°24' E 004°60'0 0.0
2015-Jul-29 01:32N 43°24' E 004°60'0 0.0
2015-Jul-29 00:32N 43°24' E 004°60'0 0.0
2015-Jul-28 23:32N 43°24' E 004°60'0 0.0
2015-Jul-28 22:32N 43°24' E 004°60'0 0.0
2015-Jul-28 21:32N 43°24' E 004°60'0 0.0
2015-Jul-28 20:32N 43°24' E 004°60'0 0.0
2015-Jul-28 19:32N 43°24' E 004°60'0 0.0
2015-Jul-28 18:32N 43°24' E 004°60'0 0.0
2015-Jul-28 17:32N 43°24' E 004°60'0 0.0
2015-Jul-28 16:32N 43°24' E 004°60'0 0.0
2015-Jul-28 15:32N 43°24' E 004°60'0 0.0
2015-Jul-28 14:32N 43°24' E 004°60'0 0.0
2015-Jul-28 13:32N 43°24' E 004°60'3 3.4
2015-Jul-28 12:34N 43°22' E 004°57'0 0.1
2015-Jul-28 11:33N 43°22' E 004°57'0 0.0
2015-Jul-28 10:33N 43°22' E 004°56'0 0.0
2015-Jul-28 09:33N 43°22' E 004°56'0 0.0
2015-Jul-28 08:30N 43°22' E 004°56'0 0.0
2015-Jul-28 07:33N 43°22' E 004°57'3 2.7
2015-Jul-28 06:34N 43°24' E 004°59'1 0.8
2015-Jul-28 05:32N 43°24' E 004°60'0 0.0
2015-Jul-28 04:32N 43°24' E 004°60'0 0.0
2015-Jul-28 03:32N 43°24' E 004°60'0 0.0
2015-Jul-28 02:32N 43°24' E 004°60'0 0.0
2015-Jul-28 01:32N 43°24' E 004°60'0 0.0
2015-Jul-28 00:32N 43°24' E 004°60'0 0.0
2015-Jul-27 23:32N 43°24' E 004°60'0 0.0
2015-Jul-27 22:32N 43°24' E 004°60'0 0.0
2015-Jul-27 21:32N 43°24' E 004°60'0 0.0
2015-Jul-27 20:32N 43°24' E 004°60'0 0.0
2015-Jul-27 19:32N 43°24' E 004°60'0 0.0
2015-Jul-27 18:32N 43°24' E 004°60'0 0.0
2015-Jul-27 17:32N 43°24' E 004°60'0 0.0
2015-Jul-27 16:32N 43°24' E 004°60'0 0.0
2015-Jul-27 15:32N 43°24' E 004°60'0 0.0
2015-Jul-27 14:32N 43°24' E 004°60'0 0.0
2015-Jul-27 13:32N 43°24' E 004°60'0 0.0
2015-Jul-27 12:32N 43°24' E 004°60'0 0.0
2015-Jul-27 11:32N 43°24' E 004°60'0 0.0
2015-Jul-27 10:32N 43°24' E 004°60'0 0.0
2015-Jul-27 09:32N 43°24' E 004°60'0 0.0
2015-Jul-27 08:32N 43°24' E 004°60'0 0.0
2015-Jul-27 07:32N 43°24' E 004°60'0 0.0
2015-Jul-27 06:31N 43°24' E 004°60'0 0.0
2015-Jul-27 05:31N 43°24' E 004°60'0 0.0
2015-Jul-27 04:31N 43°24' E 004°60'0 0.0
2015-Jul-27 03:31N 43°24' E 004°60'0 0.0
2015-Jul-27 02:31N 43°24' E 004°60'0 0.0
2015-Jul-27 01:31N 43°24' E 004°60'0 0.0
2015-Jul-27 00:31N 43°24' E 004°60'0 0.0
2015-Jul-26 23:33N 43°24' E 004°60'0 0.0
2015-Jul-26 22:33N 43°24' E 004°60'0 0.0
2015-Jul-26 21:33N 43°24' E 004°60'0 0.0
2015-Jul-26 20:33N 43°24' E 004°60'0 0.0
2015-Jul-26 19:30N 43°24' E 004°60'0 0.0
2015-Jul-26 18:33N 43°24' E 004°60'0 0.0
2015-Jul-26 17:33N 43°24' E 004°60'0 0.0
2015-Jul-26 16:33N 43°24' E 004°60'0 0.0
2015-Jul-26 15:33N 43°24' E 004°60'0 0.0
2015-Jul-26 14:34N 43°24' E 004°60'0 0.0
2015-Jul-26 13:33N 43°24' E 004°60'0 0.0
2015-Jul-26 12:33N 43°24' E 004°60'0 0.0
2015-Jul-26 11:33N 43°24' E 004°60'0 0.0
2015-Jul-26 10:33N 43°24' E 004°60'0 0.0
2015-Jul-26 09:33N 43°24' E 004°60'0 0.0
2015-Jul-26 08:33N 43°24' E 004°60'0 0.0
2015-Jul-26 07:33N 43°24' E 004°60'0 0.0
2015-Jul-26 06:33N 43°24' E 004°60'0 0.0
2015-Jul-26 05:33N 43°24' E 004°60'0 0.0
2015-Jul-26 04:33N 43°24' E 004°60'0 0.0
2015-Jul-26 03:33N 43°24' E 004°60'0 0.0
2015-Jul-26 02:33N 43°24' E 004°60'0 0.0
2015-Jul-26 01:32N 43°24' E 004°60'0 0.0
2015-Jul-26 00:32N 43°24' E 004°60'0 0.0
2015-Jul-25 23:32N 43°24' E 004°60'0 0.0
2015-Jul-25 22:32N 43°24' E 004°60'0 0.0
2015-Jul-25 21:32N 43°24' E 004°60'0 0.0
2015-Jul-25 20:32N 43°24' E 004°60'0 0.0
2015-Jul-25 19:32N 43°24' E 004°60'0 0.0
2015-Jul-25 18:32N 43°24' E 004°60'0 0.0
2015-Jul-25 17:32N 43°24' E 004°60'0 0.0
2015-Jul-25 16:32N 43°24' E 004°60'0 0.0
2015-Jul-25 15:32N 43°24' E 004°60'0 0.0
2015-Jul-25 14:32N 43°24' E 004°60'0 0.0
2015-Jul-25 13:32N 43°24' E 004°60'0 0.0
2015-Jul-25 12:32N 43°24' E 004°60'0 0.0
2015-Jul-25 11:32N 43°24' E 004°60'0 0.0
2015-Jul-25 10:32N 43°24' E 004°60'0 0.0
2015-Jul-25 09:32N 43°24' E 004°60'0 0.0
2015-Jul-25 08:32N 43°24' E 004°60'0 0.0
2015-Jul-25 07:32N 43°24' E 004°60'0 0.0
2015-Jul-25 06:32N 43°24' E 004°60'0 0.0
2015-Jul-25 05:32N 43°24' E 004°60'0 0.0
2015-Jul-25 04:28N 43°24' E 004°60'0 0.0
2015-Jul-25 03:31N 43°24' E 004°60'0 0.0
2015-Jul-25 02:31N 43°24' E 004°60'0 0.0
2015-Jul-25 01:32N 43°24' E 004°60'0 0.0
2015-Jul-25 00:32N 43°24' E 004°60'0 0.0
2015-Jul-24 23:32N 43°24' E 004°60'0 0.0
2015-Jul-24 22:32N 43°24' E 004°60'0 0.0
2015-Jul-24 21:32N 43°24' E 004°60'0 0.0
2015-Jul-24 20:32N 43°24' E 004°60'0 0.0
2015-Jul-24 19:32N 43°24' E 004°60'0 0.0
2015-Jul-24 18:32N 43°24' E 004°60'0 0.0
2015-Jul-24 17:32N 43°24' E 004°60'0 0.0
2015-Jul-24 16:29N 43°24' E 004°60'0 0.0
2015-Jul-24 15:32N 43°24' E 004°60'0 0.0
2015-Jul-24 14:32N 43°24' E 004°60'0 0.0
2015-Jul-24 13:32N 43°24' E 004°60'0 0.0
2015-Jul-24 12:33N 43°24' E 004°60'1 0.7
2015-Jul-24 11:33N 43°24' E 004°59'0 0.0
2015-Jul-24 10:33N 43°24' E 004°59'0 0.0
2015-Jul-24 09:33N 43°24' E 004°59'0 0.0
2015-Jul-24 08:33N 43°24' E 004°59'0 0.0
2015-Jul-24 07:31N 43°24' E 004°59'0 0.0
2015-Jul-24 06:31N 43°24' E 004°59'1 0.7
2015-Jul-24 05:33N 43°24' E 004°60'0 0.0
2015-Jul-24 04:33N 43°24' E 004°60'0 0.0
2015-Jul-24 03:33N 43°24' E 004°60'0 0.0
2015-Jul-24 02:33N 43°24' E 004°60'0 0.0
2015-Jul-24 01:30N 43°24' E 004°60'0 0.0
2015-Jul-24 00:33N 43°24' E 004°60'0 0.0
2015-Jul-23 23:33N 43°24' E 004°60'0 0.0
2015-Jul-23 22:33N 43°24' E 004°60'0 0.0
2015-Jul-23 21:33N 43°24' E 004°60'0 0.0
2015-Jul-23 20:33N 43°24' E 004°60'0 0.0
2015-Jul-23 19:33N 43°24' E 004°60'0 0.0
2015-Jul-23 18:33N 43°24' E 004°60'0 0.0
2015-Jul-23 17:33N 43°24' E 004°60'0 0.0
2015-Jul-23 16:33N 43°24' E 004°60'0 0.0
2015-Jul-23 15:33N 43°24' E 004°60'0 0.0
2015-Jul-23 14:33N 43°24' E 004°60'0 0.0
2015-Jul-23 13:33N 43°24' E 004°60'0 0.0
2015-Jul-23 12:33N 43°24' E 004°60'0 0.2
2015-Jul-23 11:33N 43°24' E 004°60'0 0.2
2015-Jul-23 10:33N 43°24' E 004°60'0 0.0
2015-Jul-23 09:31N 43°24' E 004°60'0 0.0
2015-Jul-23 08:31N 43°24' E 004°60'0 0.0
2015-Jul-23 07:31N 43°24' E 004°60'0 0.0
2015-Jul-23 06:31N 43°24' E 004°60'0 0.0
2015-Jul-23 05:31N 43°24' E 004°60'0 0.0
2015-Jul-23 04:31N 43°24' E 004°60'0 0.0
2015-Jul-23 03:31N 43°24' E 004°60'0 0.0
2015-Jul-23 02:31N 43°24' E 004°60'0 0.0
2015-Jul-23 01:31N 43°24' E 004°60'0 0.0
2015-Jul-23 00:31N 43°24' E 004°60'0 0.0
2015-Jul-22 23:32N 43°24' E 004°60'0 0.0
2015-Jul-22 22:33N 43°24' E 004°60'0 0.0
2015-Jul-22 21:33N 43°24' E 004°60'0 0.0
2015-Jul-22 20:33N 43°24' E 004°60'0 0.0
2015-Jul-22 19:33N 43°24' E 004°60'0 0.0
2015-Jul-22 18:30N 43°24' E 004°60'0 0.0
2015-Jul-22 17:33N 43°24' E 004°60'0 0.0
2015-Jul-22 16:33N 43°24' E 004°60'0 0.0
2015-Jul-22 15:33N 43°24' E 004°60'0 0.0
2015-Jul-22 14:33N 43°24' E 004°60'1 0.9
2015-Jul-22 13:34N 43°24' E 004°59'1 1.3
2015-Jul-22 12:31N 43°24' E 004°57'0 0.0
2015-Jul-22 11:31N 43°24' E 004°57'0 0.0
2015-Jul-22 10:31N 43°24' E 004°57'2 2.1
2015-Jul-22 09:33N 43°24' E 004°60'0 0.0
2015-Jul-22 08:33N 43°24' E 004°60'0 0.0
2015-Jul-22 07:30N 43°24' E 004°60'0 0.0
2015-Jul-22 06:33N 43°24' E 004°60'0 0.0
2015-Jul-22 05:33N 43°24' E 004°60'0 0.0
2015-Jul-22 04:33N 43°24' E 004°60'0 0.0
2015-Jul-22 03:31N 43°24' E 004°60'0 0.0
2015-Jul-22 02:31N 43°24' E 004°60'0 0.0
2015-Jul-22 01:31N 43°24' E 004°60'0 0.0
2015-Jul-22 00:31N 43°24' E 004°60'1 1.1
2015-Jul-21 23:34N 43°23' E 004°59'4 3.9
2015-Jul-21 22:28N 43°25' E 004°53'0 0.0
2015-Jul-21 21:28N 43°25' E 004°53'0 0.0
2015-Jul-21 20:31N 43°25' E 004°53'0 0.0
2015-Jul-21 19:28N 43°25' E 004°53'0 0.0
2015-Jul-21 18:28N 43°25' E 004°53'0 0.0
2015-Jul-21 17:31N 43°25' E 004°53'0 0.0
2015-Jul-21 16:31N 43°25' E 004°53'0 0.0
2015-Jul-21 15:31N 43°25' E 004°53'0 0.0
2015-Jul-21 14:32N 43°25' E 004°53'0 0.0
2015-Jul-21 13:33N 43°25' E 004°53'4 3.9
2015-Jul-21 12:33N 43°24' E 004°58'1 1.3
2015-Jul-21 11:32N 43°24' E 004°60'0 0.0
2015-Jul-21 10:32N 43°24' E 004°60'0 0.0
2015-Jul-21 09:32N 43°24' E 004°60'0 0.0
2015-Jul-21 08:32N 43°24' E 004°60'0 0.0
2015-Jul-21 07:32N 43°24' E 004°60'0 0.0
2015-Jul-21 06:32N 43°24' E 004°60'0 0.0
2015-Jul-21 05:32N 43°24' E 004°60'0 0.0
2015-Jul-21 04:29N 43°24' E 004°60'0 0.0
2015-Jul-21 03:32N 43°24' E 004°60'0 0.0
2015-Jul-21 02:32N 43°24' E 004°60'0 0.0
2015-Jul-21 01:32N 43°24' E 004°60'0 0.0
2015-Jul-21 00:32N 43°24' E 004°60'0 0.0
2015-Jul-20 23:32N 43°24' E 004°60'0 0.0
2015-Jul-20 22:32N 43°24' E 004°60'0 0.0
2015-Jul-20 21:32N 43°24' E 004°60'0 0.0
2015-Jul-20 20:32N 43°24' E 004°60'0 0.0
2015-Jul-20 19:32N 43°24' E 004°60'0 0.0
2015-Jul-20 18:32N 43°24' E 004°60'0 0.0
2015-Jul-20 17:32N 43°24' E 004°60'0 0.0
2015-Jul-20 16:32N 43°24' E 004°60'0 0.0
2015-Jul-20 15:32N 43°24' E 004°60'  
Track history (hours):
 
Tides and Currents Weather Stations Pressure Air Temp Water Temp Dewpoint Dewpoint Depression Visibility Wind Speed Wind Dir Waves Ship Positions

Shana Des Slops

Last reported at 2015-Jul-30 15:32 UTC. Time now 2015-Jul-30 16:12 UTC.
Position N 43°24' E 004°60'.

Length 47 m; draft 3.2 m.

Type: Tanker. MMSI: 228003800.

Date/timePositionNaut miles runAvg speedWind from/ knotsBaromVisibWave heightAir tempDewpointWater temp
2015-Jul-30 15:32N 43°24' E 004°60'0 0.0
2015-Jul-30 14:29N 43°24' E 004°60'0 0.0
2015-Jul-30 13:32N 43°24' E 004°60'0 0.0
2015-Jul-30 12:32N 43°24' E 004°60'0 0.0
2015-Jul-30 11:32N 43°24' E 004°60'0 0.0
2015-Jul-30 10:32N 43°24' E 004°60'0 0.0
2015-Jul-30 09:32N 43°24' E 004°60'0 0.0
2015-Jul-30 08:32N 43°24' E 004°60'0 0.0
2015-Jul-30 07:32N 43°24' E 004°60'0 0.0
2015-Jul-30 06:32N 43°24' E 004°60'0 0.0
2015-Jul-30 05:32N 43°24' E 004°60'0 0.0
2015-Jul-30 04:32N 43°24' E 004°60'0 0.0
2015-Jul-30 03:32N 43°24' E 004°60'0 0.0
2015-Jul-30 02:32N 43°24' E 004°60'0 0.0
2015-Jul-30 01:32N 43°24' E 004°60'0 0.0
2015-Jul-30 00:31N 43°24' E 004°60'0 0.0
2015-Jul-29 23:31N 43°24' E 004°60'0 0.0
2015-Jul-29 22:31N 43°24' E 004°60'0 0.0
2015-Jul-29 21:31N 43°24' E 004°60'0 0.0
2015-Jul-29 20:31N 43°24' E 004°60'0 0.0
2015-Jul-29 19:31N 43°24' E 004°60'0 0.0
2015-Jul-29 18:31N 43°24' E 004°60'1 1.3
2015-Jul-29 17:32N 43°24' E 004°58'0 0.0
2015-Jul-29 16:32N 43°24' E 004°58'0 0.0
2015-Jul-29 15:33N 43°24' E 004°58'0 0.1
2015-Jul-29 14:33N 43°24' E 004°58'0 0.0
2015-Jul-29 13:33N 43°24' E 004°58'0 0.0
2015-Jul-29 12:33N 43°24' E 004°58'1 0.8
2015-Jul-29 11:30N 43°24' E 004°59'0 0.0
2015-Jul-29 10:33N 43°24' E 004°59'0 0.0
2015-Jul-29 09:33N 43°24' E 004°59'0 0.0
2015-Jul-29 08:33N 43°24' E 004°59'0 0.0
2015-Jul-29 07:33N 43°24' E 004°59'0 0.0
2015-Jul-29 06:33N 43°24' E 004°59'0 0.0
2015-Jul-29 05:33N 43°24' E 004°59'1 0.5
2015-Jul-29 04:32N 43°24' E 004°60'0 0.0
2015-Jul-29 03:32N 43°24' E 004°60'0 0.0
2015-Jul-29 02:32N 43°24' E 004°60'0 0.0
2015-Jul-29 01:32N 43°24' E 004°60'0 0.0
2015-Jul-29 00:32N 43°24' E 004°60'0 0.0
2015-Jul-28 23:32N 43°24' E 004°60'0 0.0
2015-Jul-28 22:32N 43°24' E 004°60'0 0.0
2015-Jul-28 21:32N 43°24' E 004°60'0 0.0
2015-Jul-28 20:32N 43°24' E 004°60'0 0.0
2015-Jul-28 19:32N 43°24' E 004°60'0 0.0
2015-Jul-28 18:32N 43°24' E 004°60'0 0.0
2015-Jul-28 17:32N 43°24' E 004°60'0 0.0
2015-Jul-28 16:32N 43°24' E 004°60'0 0.0
2015-Jul-28 15:32N 43°24' E 004°60'0 0.0
2015-Jul-28 14:32N 43°24' E 004°60'0 0.0
2015-Jul-28 13:32N 43°24' E 004°60'3 3.4
2015-Jul-28 12:34N 43°22' E 004°57'0 0.1
2015-Jul-28 11:33N 43°22' E 004°57'0 0.0
2015-Jul-28 10:33N 43°22' E 004°56'0 0.0
2015-Jul-28 09:33N 43°22' E 004°56'0 0.0
2015-Jul-28 08:30N 43°22' E 004°56'0 0.0
2015-Jul-28 07:33N 43°22' E 004°57'3 2.7
2015-Jul-28 06:34N 43°24' E 004°59'1 0.8
2015-Jul-28 05:32N 43°24' E 004°60'0 0.0
2015-Jul-28 04:32N 43°24' E 004°60'0 0.0
2015-Jul-28 03:32N 43°24' E 004°60'0 0.0
2015-Jul-28 02:32N 43°24' E 004°60'0 0.0
2015-Jul-28 01:32N 43°24' E 004°60'0 0.0
2015-Jul-28 00:32N 43°24' E 004°60'0 0.0
2015-Jul-27 23:32N 43°24' E 004°60'0 0.0
2015-Jul-27 22:32N 43°24' E 004°60'0 0.0
2015-Jul-27 21:32N 43°24' E 004°60'0 0.0
2015-Jul-27 20:32N 43°24' E 004°60'0 0.0
2015-Jul-27 19:32N 43°24' E 004°60'0 0.0
2015-Jul-27 18:32N 43°24' E 004°60'0 0.0
2015-Jul-27 17:32N 43°24' E 004°60'0 0.0
2015-Jul-27 16:32N 43°24' E 004°60'0 0.0
2015-Jul-27 15:32N 43°24' E 004°60'0 0.0
2015-Jul-27 14:32N 43°24' E 004°60'0 0.0
2015-Jul-27 13:32N 43°24' E 004°60'0 0.0
2015-Jul-27 12:32N 43°24' E 004°60'0 0.0
2015-Jul-27 11:32N 43°24' E 004°60'0 0.0
2015-Jul-27 10:32N 43°24' E 004°60'0 0.0
2015-Jul-27 09:32N 43°24' E 004°60'0 0.0
2015-Jul-27 08:32N 43°24' E 004°60'0 0.0
2015-Jul-27 07:32N 43°24' E 004°60'0 0.0
2015-Jul-27 06:31N 43°24' E 004°60'0 0.0
2015-Jul-27 05:31N 43°24' E 004°60'0 0.0
2015-Jul-27 04:31N 43°24' E 004°60'0 0.0
2015-Jul-27 03:31N 43°24' E 004°60'0 0.0
2015-Jul-27 02:31N 43°24' E 004°60'0 0.0
2015-Jul-27 01:31N 43°24' E 004°60'0 0.0
2015-Jul-27 00:31N 43°24' E 004°60'0 0.0
2015-Jul-26 23:33N 43°24' E 004°60'0 0.0
2015-Jul-26 22:33N 43°24' E 004°60'0 0.0
2015-Jul-26 21:33N 43°24' E 004°60'0 0.0
2015-Jul-26 20:33N 43°24' E 004°60'0 0.0
2015-Jul-26 19:30N 43°24' E 004°60'0 0.0
2015-Jul-26 18:33N 43°24' E 004°60'0 0.0
2015-Jul-26 17:33N 43°24' E 004°60'0 0.0
2015-Jul-26 16:33N 43°24' E 004°60'0 0.0
2015-Jul-26 15:33N 43°24' E 004°60'0 0.0
2015-Jul-26 14:34N 43°24' E 004°60'0 0.0
2015-Jul-26 13:33N 43°24' E 004°60'0 0.0
2015-Jul-26 12:33N 43°24' E 004°60'0 0.0
2015-Jul-26 11:33N 43°24' E 004°60'0 0.0
2015-Jul-26 10:33N 43°24' E 004°60'0 0.0
2015-Jul-26 09:33N 43°24' E 004°60'0 0.0
2015-Jul-26 08:33N 43°24' E 004°60'0 0.0
2015-Jul-26 07:33N 43°24' E 004°60'0 0.0
2015-Jul-26 06:33N 43°24' E 004°60'0 0.0
2015-Jul-26 05:33N 43°24' E 004°60'0 0.0
2015-Jul-26 04:33N 43°24' E 004°60'0 0.0
2015-Jul-26 03:33N 43°24' E 004°60'0 0.0
2015-Jul-26 02:33N 43°24' E 004°60'0 0.0
2015-Jul-26 01:32N 43°24' E 004°60'0 0.0
2015-Jul-26 00:32N 43°24' E 004°60'0 0.0
2015-Jul-25 23:32N 43°24' E 004°60'0 0.0
2015-Jul-25 22:32N 43°24' E 004°60'0 0.0
2015-Jul-25 21:32N 43°24' E 004°60'0 0.0
2015-Jul-25 20:32N 43°24' E 004°60'0 0.0
2015-Jul-25 19:32N 43°24' E 004°60'0 0.0
2015-Jul-25 18:32N 43°24' E 004°60'0 0.0
2015-Jul-25 17:32N 43°24' E 004°60'0 0.0
2015-Jul-25 16:32N 43°24' E 004°60'0 0.0
2015-Jul-25 15:32N 43°24' E 004°60'0 0.0
2015-Jul-25 14:32N 43°24' E 004°60'0 0.0
2015-Jul-25 13:32N 43°24' E 004°60'0 0.0
2015-Jul-25 12:32N 43°24' E 004°60'0 0.0
2015-Jul-25 11:32N 43°24' E 004°60'0 0.0
2015-Jul-25 10:32N 43°24' E 004°60'0 0.0
2015-Jul-25 09:32N 43°24' E 004°60'0 0.0
2015-Jul-25 08:32N 43°24' E 004°60'0 0.0
2015-Jul-25 07:32N 43°24' E 004°60'0 0.0
2015-Jul-25 06:32N 43°24' E 004°60'0 0.0
2015-Jul-25 05:32N 43°24' E 004°60'0 0.0
2015-Jul-25 04:28N 43°24' E 004°60'0 0.0
2015-Jul-25 03:31N 43°24' E 004°60'0 0.0
2015-Jul-25 02:31N 43°24' E 004°60'0 0.0
2015-Jul-25 01:32N 43°24' E 004°60'0 0.0
2015-Jul-25 00:32N 43°24' E 004°60'0 0.0
2015-Jul-24 23:32N 43°24' E 004°60'0 0.0
2015-Jul-24 22:32N 43°24' E 004°60'0 0.0
2015-Jul-24 21:32N 43°24' E 004°60'0 0.0
2015-Jul-24 20:32N 43°24' E 004°60'0 0.0
2015-Jul-24 19:32N 43°24' E 004°60'0 0.0
2015-Jul-24 18:32N 43°24' E 004°60'0 0.0
2015-Jul-24 17:32N 43°24' E 004°60'0 0.0
2015-Jul-24 16:29N 43°24' E 004°60'0 0.0
2015-Jul-24 15:32N 43°24' E 004°60'0 0.0
2015-Jul-24 14:32N 43°24' E 004°60'0 0.0
2015-Jul-24 13:32N 43°24' E 004°60'0 0.0
2015-Jul-24 12:33N 43°24' E 004°60'1 0.7
2015-Jul-24 11:33N 43°24' E 004°59'0 0.0
2015-Jul-24 10:33N 43°24' E 004°59'0 0.0
2015-Jul-24 09:33N 43°24' E 004°59'0 0.0
2015-Jul-24 08:33N 43°24' E 004°59'0 0.0
2015-Jul-24 07:31N 43°24' E 004°59'0 0.0
2015-Jul-24 06:31N 43°24' E 004°59'1 0.7
2015-Jul-24 05:33N 43°24' E 004°60'0 0.0
2015-Jul-24 04:33N 43°24' E 004°60'0 0.0
2015-Jul-24 03:33N 43°24' E 004°60'0 0.0
2015-Jul-24 02:33N 43°24' E 004°60'0 0.0
2015-Jul-24 01:30N 43°24' E 004°60'0 0.0
2015-Jul-24 00:33N 43°24' E 004°60'0 0.0
2015-Jul-23 23:33N 43°24' E 004°60'0 0.0
2015-Jul-23 22:33N 43°24' E 004°60'0 0.0
2015-Jul-23 21:33N 43°24' E 004°60'0 0.0
2015-Jul-23 20:33N 43°24' E 004°60'0 0.0
2015-Jul-23 19:33N 43°24' E 004°60'0 0.0
2015-Jul-23 18:33N 43°24' E 004°60'0 0.0
2015-Jul-23 17:33N 43°24' E 004°60'0 0.0
2015-Jul-23 16:33N 43°24' E 004°60'0 0.0
2015-Jul-23 15:33N 43°24' E 004°60'0 0.0
2015-Jul-23 14:33N 43°24' E 004°60'0 0.0
2015-Jul-23 13:33N 43°24' E 004°60'0 0.0
2015-Jul-23 12:33N 43°24' E 004°60'0 0.2
2015-Jul-23 11:33N 43°24' E 004°60'0 0.2
2015-Jul-23 10:33N 43°24' E 004°60'0 0.0
2015-Jul-23 09:31N 43°24' E 004°60'0 0.0
2015-Jul-23 08:31N 43°24' E 004°60'0 0.0
2015-Jul-23 07:31N 43°24' E 004°60'0 0.0
2015-Jul-23 06:31N 43°24' E 004°60'0 0.0
2015-Jul-23 05:31N 43°24' E 004°60'0 0.0
2015-Jul-23 04:31N 43°24' E 004°60'0 0.0
2015-Jul-23 03:31N 43°24' E 004°60'0 0.0
2015-Jul-23 02:31N 43°24' E 004°60'0 0.0
2015-Jul-23 01:31N 43°24' E 004°60'0 0.0
2015-Jul-23 00:31N 43°24' E 004°60'0 0.0
2015-Jul-22 23:32N 43°24' E 004°60'0 0.0
2015-Jul-22 22:33N 43°24' E 004°60'0 0.0
2015-Jul-22 21:33N 43°24' E 004°60'0 0.0
2015-Jul-22 20:33N 43°24' E 004°60'0 0.0
2015-Jul-22 19:33N 43°24' E 004°60'0 0.0
2015-Jul-22 18:30N 43°24' E 004°60'0 0.0
2015-Jul-22 17:33N 43°24' E 004°60'0 0.0
2015-Jul-22 16:33N 43°24' E 004°60'0 0.0
2015-Jul-22 15:33N 43°24' E 004°60'0 0.0
2015-Jul-22 14:33N 43°24' E 004°60'1 0.9
2015-Jul-22 13:34N 43°24' E 004°59'1 1.3
2015-Jul-22 12:31N 43°24' E 004°57'0 0.0
2015-Jul-22 11:31N 43°24' E 004°57'0 0.0
2015-Jul-22 10:31N 43°24' E 004°57'2 2.1
2015-Jul-22 09:33N 43°24' E 004°60'0 0.0
2015-Jul-22 08:33N 43°24' E 004°60'0 0.0
2015-Jul-22 07:30N 43°24' E 004°60'0 0.0
2015-Jul-22 06:33N 43°24' E 004°60'0 0.0
2015-Jul-22 05:33N 43°24' E 004°60'0 0.0
2015-Jul-22 04:33N 43°24' E 004°60'0 0.0
2015-Jul-22 03:31N 43°24' E 004°60'0 0.0
2015-Jul-22 02:31N 43°24' E 004°60'0 0.0
2015-Jul-22 01:31N 43°24' E 004°60'0 0.0
2015-Jul-22 00:31N 43°24' E 004°60'1 1.1
2015-Jul-21 23:34N 43°23' E 004°59'4 3.9
2015-Jul-21 22:28N 43°25' E 004°53'0 0.0
2015-Jul-21 21:28N 43°25' E 004°53'0 0.0
2015-Jul-21 20:31N 43°25' E 004°53'0 0.0
2015-Jul-21 19:28N 43°25' E 004°53'0 0.0
2015-Jul-21 18:28N 43°25' E 004°53'0 0.0
2015-Jul-21 17:31N 43°25' E 004°53'0 0.0
2015-Jul-21 16:31N 43°25' E 004°53'0 0.0
2015-Jul-21 15:31N 43°25' E 004°53'0 0.0
2015-Jul-21 14:32N 43°25' E 004°53'0 0.0
2015-Jul-21 13:33N 43°25' E 004°53'4 3.9
2015-Jul-21 12:33N 43°24' E 004°58'1 1.3
2015-Jul-21 11:32N 43°24' E 004°60'0 0.0
2015-Jul-21 10:32N 43°24' E 004°60'0 0.0
2015-Jul-21 09:32N 43°24' E 004°60'0 0.0
2015-Jul-21 08:32N 43°24' E 004°60'0 0.0
2015-Jul-21 07:32N 43°24' E 004°60'0 0.0
2015-Jul-21 06:32N 43°24' E 004°60'0 0.0
2015-Jul-21 05:32N 43°24' E 004°60'0 0.0
2015-Jul-21 04:29N 43°24' E 004°60'0 0.0
2015-Jul-21 03:32N 43°24' E 004°60'0 0.0
2015-Jul-21 02:32N 43°24' E 004°60'0 0.0
2015-Jul-21 01:32N 43°24' E 004°60'0 0.0
2015-Jul-21 00:32N 43°24' E 004°60'0 0.0
2015-Jul-20 23:32N 43°24' E 004°60'0 0.0
2015-Jul-20 22:32N 43°24' E 004°60'0 0.0
2015-Jul-20 21:32N 43°24' E 004°60'0 0.0
2015-Jul-20 20:32N 43°24' E 004°60'0 0.0
2015-Jul-20 19:32N 43°24' E 004°60'0 0.0
2015-Jul-20 18:32N 43°24' E 004°60'0 0.0
2015-Jul-20 17:32N 43°24' E 004°60'0 0.0
2015-Jul-20 16:32N 43°24' E 004°60'0 0.0
2015-Jul-20 15:32N 43°24' E 004°60'  

Dump ship's entire track history